sensor_id;sensor_type;location;lat;lon;timestamp;P1;durP1;ratioP1;P2;durP2;ratioP2
57824;SDS011;43912;44.188;21.094;2022-08-14T04:30:47;25.88;;;23.35;;
57824;SDS011;43912;44.188;21.094;2022-08-14T04:33:14;26.70;;;24.10;;
57824;SDS011;43912;44.188;21.094;2022-08-14T04:35:40;26.25;;;23.75;;
57824;SDS011;43912;44.188;21.094;2022-08-14T04:38:07;24.80;;;22.40;;
57824;SDS011;43912;44.188;21.094;2022-08-14T04:40:52;28.50;;;25.80;;
57824;SDS011;43912;44.188;21.094;2022-08-14T04:43:37;27.80;;;24.95;;
57824;SDS011;43912;44.188;21.094;2022-08-14T04:46:07;25.08;;;22.67;;
57824;SDS011;43912;44.188;21.094;2022-08-14T04:48:34;27.95;;;25.10;;
57824;SDS011;43912;44.188;21.094;2022-08-14T04:51:00;25.30;;;22.88;;
57824;SDS011;43912;44.188;21.094;2022-08-14T04:53:27;26.25;;;23.65;;
57824;SDS011;43912;44.188;21.094;2022-08-14T04:55:55;28.50;;;25.83;;
57824;SDS011;43912;44.188;21.094;2022-08-14T04:58:26;27.00;;;24.35;;
57824;SDS011;43912;44.188;21.094;2022-08-14T05:00:53;26.55;;;23.95;;
57824;SDS011;43912;44.188;21.094;2022-08-14T05:03:20;26.85;;;24.35;;
57824;SDS011;43912;44.188;21.094;2022-08-14T05:05:46;27.85;;;25.13;;
57824;SDS011;43912;44.188;21.094;2022-08-14T05:08:12;28.33;;;25.73;;
57824;SDS011;43912;44.188;21.094;2022-08-14T05:10:40;29.15;;;26.27;;
57824;SDS011;43912;44.188;21.094;2022-08-14T05:13:06;28.48;;;25.58;;
57824;SDS011;43912;44.188;21.094;2022-08-14T05:15:36;26.67;;;23.88;;
57824;SDS011;43912;44.188;21.094;2022-08-14T05:18:12;25.77;;;23.38;;
57824;SDS011;43912;44.188;21.094;2022-08-14T05:20:39;27.45;;;24.55;;
57824;SDS011;43912;44.188;21.094;2022-08-14T05:23:09;25.88;;;23.38;;
57824;SDS011;43912;44.188;21.094;2022-08-14T05:25:36;28.92;;;26.25;;
57824;SDS011;43912;44.188;21.094;2022-08-14T05:28:06;25.88;;;23.38;;
57824;SDS011;43912;44.188;21.094;2022-08-14T05:30:32;30.08;;;27.15;;
57824;SDS011;43912;44.188;21.094;2022-08-14T05:32:58;31.70;;;28.50;;
57824;SDS011;43912;44.188;21.094;2022-08-14T05:35:26;32.95;;;29.55;;
57824;SDS011;43912;44.188;21.094;2022-08-14T05:37:52;32.03;;;28.85;;
57824;SDS011;43912;44.188;21.094;2022-08-14T05:40:18;30.50;;;27.50;;
57824;SDS011;43912;44.188;21.094;2022-08-14T05:42:45;32.67;;;29.48;;
57824;SDS011;43912;44.188;21.094;2022-08-14T05:45:11;33.47;;;30.27;;
57824;SDS011;43912;44.188;21.094;2022-08-14T05:47:41;32.58;;;29.25;;
57824;SDS011;43912;44.188;21.094;2022-08-14T05:50:10;28.83;;;26.00;;
57824;SDS011;43912;44.188;21.094;2022-08-14T05:52:37;28.17;;;25.42;;
57824;SDS011;43912;44.188;21.094;2022-08-14T05:55:03;28.02;;;25.33;;
57824;SDS011;43912;44.188;21.094;2022-08-14T05:57:30;27.92;;;25.13;;
57824;SDS011;43912;44.188;21.094;2022-08-14T05:59:56;28.90;;;26.08;;
57824;SDS011;43912;44.188;21.094;2022-08-14T06:02:22;30.50;;;27.40;;
57824;SDS011;43912;44.188;21.094;2022-08-14T06:04:48;30.55;;;27.63;;
57824;SDS011;43912;44.188;21.094;2022-08-14T06:07:14;31.95;;;28.70;;
57824;SDS011;43912;44.188;21.094;2022-08-14T06:09:40;30.92;;;28.05;;
57824;SDS011;43912;44.188;21.094;2022-08-14T06:12:07;33.25;;;29.90;;
57824;SDS011;43912;44.188;21.094;2022-08-14T06:14:33;32.38;;;28.80;;
57824;SDS011;43912;44.188;21.094;2022-08-14T06:17:00;29.40;;;26.60;;
57824;SDS011;43912;44.188;21.094;2022-08-14T06:19:26;31.08;;;27.98;;
57824;SDS011;43912;44.188;21.094;2022-08-14T06:21:52;32.50;;;29.40;;
57824;SDS011;43912;44.188;21.094;2022-08-14T06:24:18;35.10;;;31.52;;
57824;SDS011;43912;44.188;21.094;2022-08-14T06:26:45;30.42;;;27.48;;
57824;SDS011;43912;44.188;21.094;2022-08-14T06:29:11;31.63;;;28.52;;
57824;SDS011;43912;44.188;21.094;2022-08-14T06:31:37;28.75;;;25.95;;
57824;SDS011;43912;44.188;21.094;2022-08-14T06:34:03;28.55;;;25.67;;
57824;SDS011;43912;44.188;21.094;2022-08-14T06:36:29;27.98;;;25.27;;
57824;SDS011;43912;44.188;21.094;2022-08-14T06:38:55;30.30;;;27.38;;
57824;SDS011;43912;44.188;21.094;2022-08-14T06:41:21;32.50;;;29.40;;
57824;SDS011;43912;44.188;21.094;2022-08-14T06:43:48;31.17;;;27.95;;
57824;SDS011;43912;44.188;21.094;2022-08-14T06:46:14;31.05;;;28.08;;
57824;SDS011;43912;44.188;21.094;2022-08-14T06:48:41;32.95;;;29.75;;
57824;SDS011;43912;44.188;21.094;2022-08-14T06:51:07;33.25;;;29.95;;
57824;SDS011;43912;44.188;21.094;2022-08-14T06:53:34;32.60;;;29.42;;
57824;SDS011;43912;44.188;21.094;2022-08-14T06:56:00;35.13;;;31.60;;
57824;SDS011;43912;44.188;21.094;2022-08-14T06:58:26;37.63;;;33.88;;
57824;SDS011;43912;44.188;21.094;2022-08-14T07:00:52;32.58;;;29.45;;
57824;SDS011;43912;44.188;21.094;2022-08-14T07:03:37;37.85;;;34.15;;
57824;SDS011;43912;44.188;21.094;2022-08-14T07:06:21;31.60;;;28.52;;
57824;SDS011;43912;44.188;21.094;2022-08-14T07:08:48;29.05;;;26.25;;
57824;SDS011;43912;44.188;21.094;2022-08-14T07:11:16;29.63;;;26.70;;
57824;SDS011;43912;44.188;21.094;2022-08-14T07:13:42;29.63;;;26.70;;
57824;SDS011;43912;44.188;21.094;2022-08-14T07:16:08;28.55;;;25.75;;
57824;SDS011;43912;44.188;21.094;2022-08-14T07:18:37;29.27;;;26.38;;
57824;SDS011;43912;44.188;21.094;2022-08-14T07:21:04;27.17;;;24.58;;
57824;SDS011;43912;44.188;21.094;2022-08-14T07:23:30;25.58;;;23.17;;
57824;SDS011;43912;44.188;21.094;2022-08-14T07:25:58;25.17;;;22.67;;
57824;SDS011;43912;44.188;21.094;2022-08-14T07:28:29;25.63;;;23.13;;
57824;SDS011;43912;44.188;21.094;2022-08-14T07:30:57;22.50;;;20.27;;
57824;SDS011;43912;44.188;21.094;2022-08-14T07:33:24;26.48;;;23.65;;
57824;SDS011;43912;44.188;21.094;2022-08-14T07:35:51;25.42;;;22.83;;
57824;SDS011;43912;44.188;21.094;2022-08-14T07:38:18;24.83;;;22.48;;
57824;SDS011;43912;44.188;21.094;2022-08-14T07:40:44;24.15;;;21.75;;
57824;SDS011;43912;44.188;21.094;2022-08-14T07:43:11;25.98;;;23.48;;
57824;SDS011;43912;44.188;21.094;2022-08-14T07:45:37;27.10;;;24.40;;
57824;SDS011;43912;44.188;21.094;2022-08-14T07:48:04;34.22;;;30.80;;
57824;SDS011;43912;44.188;21.094;2022-08-14T07:50:30;28.98;;;26.15;;
57824;SDS011;43912;44.188;21.094;2022-08-14T07:52:57;33.53;;;30.23;;
57824;SDS011;43912;44.188;21.094;2022-08-14T07:55:23;28.48;;;25.60;;
57824;SDS011;43912;44.188;21.094;2022-08-14T07:57:50;27.38;;;24.67;;
57824;SDS011;43912;44.188;21.094;2022-08-14T08:00:17;26.40;;;23.80;;
57824;SDS011;43912;44.188;21.094;2022-08-14T08:02:44;26.52;;;23.95;;
57824;SDS011;43912;44.188;21.094;2022-08-14T08:05:11;25.30;;;22.80;;
57824;SDS011;43912;44.188;21.094;2022-08-14T08:07:38;23.95;;;21.55;;
57824;SDS011;43912;44.188;21.094;2022-08-14T08:10:07;25.63;;;23.23;;
57824;SDS011;43912;44.188;21.094;2022-08-14T08:12:53;29.00;;;26.10;;
57824;SDS011;43912;44.188;21.094;2022-08-14T08:15:21;28.52;;;25.77;;
57824;SDS011;43912;44.188;21.094;2022-08-14T08:17:47;29.42;;;26.60;;
57824;SDS011;43912;44.188;21.094;2022-08-14T08:20:19;28.88;;;25.98;;
57824;SDS011;43912;44.188;21.094;2022-08-14T08:22:48;31.20;;;28.00;;
57824;SDS011;43912;44.188;21.094;2022-08-14T08:25:20;30.45;;;27.40;;
57824;SDS011;43912;44.188;21.094;2022-08-14T08:27:56;30.00;;;27.13;;
57824;SDS011;43912;44.188;21.094;2022-08-14T08:30:22;29.42;;;26.63;;
57824;SDS011;43912;44.188;21.094;2022-08-14T08:32:49;28.95;;;26.15;;
57824;SDS011;43912;44.188;21.094;2022-08-14T08:35:20;29.33;;;26.42;;
57824;SDS011;43912;44.188;21.094;2022-08-14T08:37:47;26.30;;;23.70;;
57824;SDS011;43912;44.188;21.094;2022-08-14T08:40:27;26.00;;;23.50;;
57824;SDS011;43912;44.188;21.094;2022-08-14T08:42:53;26.35;;;23.90;;
57824;SDS011;43912;44.188;21.094;2022-08-14T08:45:20;26.30;;;23.80;;
57824;SDS011;43912;44.188;21.094;2022-08-14T08:47:47;23.73;;;21.52;;
57824;SDS011;43912;44.188;21.094;2022-08-14T08:50:29;23.73;;;21.30;;
57824;SDS011;43912;44.188;21.094;2022-08-14T08:52:57;24.08;;;21.77;;
57824;SDS011;43912;44.188;21.094;2022-08-14T08:55:31;24.25;;;21.95;;
57824;SDS011;43912;44.188;21.094;2022-08-14T08:58:16;24.10;;;21.73;;
57824;SDS011;43912;44.188;21.094;2022-08-14T09:00:50;26.65;;;24.02;;
57824;SDS011;43912;44.188;21.094;2022-08-14T09:03:18;27.70;;;25.00;;
57824;SDS011;43912;44.188;21.094;2022-08-14T09:05:50;25.35;;;23.00;;
57824;SDS011;43912;44.188;21.094;2022-08-14T09:08:17;29.83;;;27.00;;
57824;SDS011;43912;44.188;21.094;2022-08-14T09:10:44;28.13;;;25.50;;
57824;SDS011;43912;44.188;21.094;2022-08-14T09:13:11;29.45;;;26.73;;
57824;SDS011;43912;44.188;21.094;2022-08-14T09:15:42;29.92;;;27.17;;
57824;SDS011;43912;44.188;21.094;2022-08-14T09:18:09;30.02;;;27.23;;
57824;SDS011;43912;44.188;21.094;2022-08-14T09:20:39;33.90;;;30.70;;
57824;SDS011;43912;44.188;21.094;2022-08-14T09:23:07;36.20;;;32.78;;
57824;SDS011;43912;44.188;21.094;2022-08-14T09:25:34;35.17;;;31.88;;
57824;SDS011;43912;44.188;21.094;2022-08-14T09:28:00;39.92;;;36.10;;
57824;SDS011;43912;44.188;21.094;2022-08-14T09:30:27;42.88;;;38.47;;
57824;SDS011;43912;44.188;21.094;2022-08-14T09:38:34;39.88;;;35.88;;
57824;SDS011;43912;44.188;21.094;2022-08-14T09:46:23;37.53;;;33.92;;
57824;SDS011;43912;44.188;21.094;2022-08-14T09:49:02;37.67;;;33.95;;
57824;SDS011;43912;44.188;21.094;2022-08-14T09:51:29;36.40;;;32.90;;
57824;SDS011;43912;44.188;21.094;2022-08-14T09:54:00;38.33;;;34.63;;
57824;SDS011;43912;44.188;21.094;2022-08-14T09:56:27;36.92;;;33.42;;
57824;SDS011;43912;44.188;21.094;2022-08-14T09:58:53;37.97;;;33.85;;
57824;SDS011;43912;44.188;21.094;2022-08-14T10:01:23;37.65;;;34.17;;
57824;SDS011;43912;44.188;21.094;2022-08-14T10:03:53;37.03;;;33.42;;
57824;SDS011;43912;44.188;21.094;2022-08-14T10:06:26;37.63;;;34.13;;
57824;SDS011;43912;44.188;21.094;2022-08-14T10:08:57;35.83;;;32.53;;
57824;SDS011;43912;44.188;21.094;2022-08-14T10:11:27;40.60;;;36.58;;
57824;SDS011;43912;44.188;21.094;2022-08-14T10:13:58;39.25;;;35.38;;
57824;SDS011;43912;44.188;21.094;2022-08-14T10:16:39;37.67;;;34.05;;
57824;SDS011;43912;44.188;21.094;2022-08-14T10:19:10;37.63;;;33.95;;
57824;SDS011;43912;44.188;21.094;2022-08-14T10:21:38;35.47;;;32.17;;
57824;SDS011;43912;44.188;21.094;2022-08-14T10:24:05;36.38;;;33.08;;
57824;SDS011;43912;44.188;21.094;2022-08-14T10:26:32;35.35;;;32.10;;
57824;SDS011;43912;44.188;21.094;2022-08-14T10:29:06;33.53;;;30.17;;
57824;SDS011;43912;44.188;21.094;2022-08-14T10:31:35;32.97;;;29.90;;
57824;SDS011;43912;44.188;21.094;2022-08-14T10:34:03;31.73;;;28.85;;
57824;SDS011;43912;44.188;21.094;2022-08-14T10:36:31;31.42;;;28.58;;
57824;SDS011;43912;44.188;21.094;2022-08-14T10:38:58;32.92;;;29.80;;
57824;SDS011;43912;44.188;21.094;2022-08-14T10:41:33;30.98;;;28.20;;
57824;SDS011;43912;44.188;21.094;2022-08-14T10:44:06;29.23;;;26.48;;
57824;SDS011;43912;44.188;21.094;2022-08-14T10:49:15;29.10;;;26.55;;
57824;SDS011;43912;44.188;21.094;2022-08-14T10:51:42;30.25;;;27.58;;
57824;SDS011;43912;44.188;21.094;2022-08-14T10:54:27;30.33;;;27.55;;
57824;SDS011;43912;44.188;21.094;2022-08-14T10:56:55;30.67;;;28.08;;
57824;SDS011;43912;44.188;21.094;2022-08-14T10:59:21;30.63;;;27.83;;
57824;SDS011;43912;44.188;21.094;2022-08-14T11:01:48;29.88;;;27.17;;
57824;SDS011;43912;44.188;21.094;2022-08-14T11:04:23;29.42;;;27.02;;
57824;SDS011;43912;44.188;21.094;2022-08-14T11:06:53;29.13;;;26.52;;
57824;SDS011;43912;44.188;21.094;2022-08-14T11:09:19;31.83;;;28.92;;
57824;SDS011;43912;44.188;21.094;2022-08-14T11:11:45;30.58;;;27.88;;
57824;SDS011;43912;44.188;21.094;2022-08-14T11:14:15;29.75;;;27.25;;
57824;SDS011;43912;44.188;21.094;2022-08-14T11:16:42;28.48;;;26.08;;
57824;SDS011;43912;44.188;21.094;2022-08-14T11:19:09;28.77;;;26.00;;
57824;SDS011;43912;44.188;21.094;2022-08-14T11:21:37;29.02;;;26.58;;
57824;SDS011;43912;44.188;21.094;2022-08-14T11:24:05;28.80;;;26.20;;
57824;SDS011;43912;44.188;21.094;2022-08-14T11:26:31;27.92;;;25.42;;
57824;SDS011;43912;44.188;21.094;2022-08-14T11:28:59;27.27;;;24.88;;
57824;SDS011;43912;44.188;21.094;2022-08-14T11:31:29;26.23;;;23.92;;
57824;SDS011;43912;44.188;21.094;2022-08-14T11:33:57;27.25;;;24.95;;
57824;SDS011;43912;44.188;21.094;2022-08-14T11:36:25;25.58;;;23.35;;
57824;SDS011;43912;44.188;21.094;2022-08-14T11:38:52;26.20;;;23.75;;
57824;SDS011;43912;44.188;21.094;2022-08-14T11:41:18;25.75;;;23.38;;
57824;SDS011;43912;44.188;21.094;2022-08-14T11:43:45;24.77;;;22.67;;
57824;SDS011;43912;44.188;21.094;2022-08-14T11:46:11;24.08;;;21.83;;
57824;SDS011;43912;44.188;21.094;2022-08-14T11:48:47;23.48;;;21.48;;
57824;SDS011;43912;44.188;21.094;2022-08-14T11:51:15;22.92;;;20.73;;
57824;SDS011;43912;44.188;21.094;2022-08-14T11:53:41;22.92;;;21.00;;
57824;SDS011;43912;44.188;21.094;2022-08-14T11:56:08;23.85;;;21.75;;
57824;SDS011;43912;44.188;21.094;2022-08-14T11:58:35;24.50;;;22.23;;
57824;SDS011;43912;44.188;21.094;2022-08-14T12:01:05;24.75;;;22.65;;
57824;SDS011;43912;44.188;21.094;2022-08-14T12:06:07;22.55;;;20.65;;
57824;SDS011;43912;44.188;21.094;2022-08-14T12:08:34;24.33;;;22.23;;
57824;SDS011;43912;44.188;21.094;2022-08-14T12:11:01;22.00;;;20.17;;
57824;SDS011;43912;44.188;21.094;2022-08-14T12:13:28;22.95;;;21.05;;
57824;SDS011;43912;44.188;21.094;2022-08-14T12:16:04;23.17;;;21.25;;
57824;SDS011;43912;44.188;21.094;2022-08-14T12:18:33;23.48;;;21.48;;
57824;SDS011;43912;44.188;21.094;2022-08-14T12:23:53;23.17;;;21.25;;
57824;SDS011;43912;44.188;21.094;2022-08-14T12:26:25;22.58;;;20.48;;
57824;SDS011;43912;44.188;21.094;2022-08-14T12:29:03;20.27;;;18.42;;
57824;SDS011;43912;44.188;21.094;2022-08-14T12:31:32;21.27;;;19.42;;
57824;SDS011;43912;44.188;21.094;2022-08-14T12:33:59;21.90;;;19.95;;
57824;SDS011;43912;44.188;21.094;2022-08-14T12:36:25;22.25;;;20.25;;
57824;SDS011;43912;44.188;21.094;2022-08-14T12:38:54;21.80;;;20.02;;
57824;SDS011;43912;44.188;21.094;2022-08-14T12:41:21;22.55;;;20.58;;
57824;SDS011;43912;44.188;21.094;2022-08-14T12:43:51;20.55;;;18.75;;
57824;SDS011;43912;44.188;21.094;2022-08-14T12:48:47;19.33;;;17.70;;
57824;SDS011;43912;44.188;21.094;2022-08-14T12:51:18;19.20;;;17.52;;
57824;SDS011;43912;44.188;21.094;2022-08-14T12:53:45;19.45;;;17.75;;
57824;SDS011;43912;44.188;21.094;2022-08-14T12:56:15;18.48;;;16.88;;
57824;SDS011;43912;44.188;21.094;2022-08-14T12:58:41;20.52;;;18.83;;
57824;SDS011;43912;44.188;21.094;2022-08-14T13:01:17;19.38;;;17.65;;
57824;SDS011;43912;44.188;21.094;2022-08-14T13:03:43;19.70;;;18.00;;
57824;SDS011;43912;44.188;21.094;2022-08-14T13:06:12;17.90;;;16.30;;
57824;SDS011;43912;44.188;21.094;2022-08-14T13:08:38;18.13;;;16.52;;
57824;SDS011;43912;44.188;21.094;2022-08-14T13:11:15;18.05;;;16.42;;
57824;SDS011;43912;44.188;21.094;2022-08-14T13:13:42;18.90;;;17.20;;
57824;SDS011;43912;44.188;21.094;2022-08-14T13:16:10;17.60;;;16.00;;
57824;SDS011;43912;44.188;21.094;2022-08-14T13:18:40;20.23;;;18.52;;
57824;SDS011;43912;44.188;21.094;2022-08-14T13:21:08;20.48;;;18.55;;
57824;SDS011;43912;44.188;21.094;2022-08-14T13:23:35;16.90;;;15.40;;
57824;SDS011;43912;44.188;21.094;2022-08-14T13:26:02;17.15;;;15.55;;
57824;SDS011;43912;44.188;21.094;2022-08-14T13:28:29;17.95;;;16.35;;
57824;SDS011;43912;44.188;21.094;2022-08-14T13:30:56;19.00;;;17.35;;
57824;SDS011;43912;44.188;21.094;2022-08-14T13:33:23;19.27;;;17.58;;
57824;SDS011;43912;44.188;21.094;2022-08-14T13:35:49;20.27;;;18.48;;
57824;SDS011;43912;44.188;21.094;2022-08-14T13:38:19;20.67;;;18.92;;
57824;SDS011;43912;44.188;21.094;2022-08-14T13:40:46;20.35;;;18.65;;
57824;SDS011;43912;44.188;21.094;2022-08-14T13:43:20;21.23;;;19.38;;
57824;SDS011;43912;44.188;21.094;2022-08-14T13:45:48;22.05;;;20.15;;
57824;SDS011;43912;44.188;21.094;2022-08-14T13:48:14;21.05;;;19.15;;
57824;SDS011;43912;44.188;21.094;2022-08-14T13:50:41;21.58;;;19.80;;
57824;SDS011;43912;44.188;21.094;2022-08-14T13:53:09;21.20;;;19.20;;
57824;SDS011;43912;44.188;21.094;2022-08-14T13:55:38;20.85;;;19.08;;
57824;SDS011;43912;44.188;21.094;2022-08-14T13:58:05;20.80;;;19.00;;
57824;SDS011;43912;44.188;21.094;2022-08-14T14:00:32;21.55;;;19.67;;
57824;SDS011;43912;44.188;21.094;2022-08-14T14:03:00;22.52;;;20.52;;
57824;SDS011;43912;44.188;21.094;2022-08-14T14:05:29;20.88;;;19.00;;
57824;SDS011;43912;44.188;21.094;2022-08-14T14:07:55;23.30;;;21.10;;
57824;SDS011;43912;44.188;21.094;2022-08-14T14:10:23;22.33;;;20.33;;
57824;SDS011;43912;44.188;21.094;2022-08-14T14:12:50;23.80;;;21.70;;
57824;SDS011;43912;44.188;21.094;2022-08-14T14:15:18;21.92;;;20.00;;
57824;SDS011;43912;44.188;21.094;2022-08-14T14:17:45;19.15;;;17.55;;
57824;SDS011;43912;44.188;21.094;2022-08-14T14:20:13;21.38;;;19.40;;
57824;SDS011;43912;44.188;21.094;2022-08-14T14:22:44;20.15;;;18.35;;
57824;SDS011;43912;44.188;21.094;2022-08-14T14:25:11;19.95;;;18.05;;
57824;SDS011;43912;44.188;21.094;2022-08-14T14:27:41;20.60;;;18.85;;
57824;SDS011;43912;44.188;21.094;2022-08-14T14:30:09;20.27;;;18.52;;
57824;SDS011;43912;44.188;21.094;2022-08-14T14:32:37;21.48;;;19.58;;
57824;SDS011;43912;44.188;21.094;2022-08-14T14:35:07;20.85;;;19.08;;
57824;SDS011;43912;44.188;21.094;2022-08-14T14:37:35;20.55;;;18.75;;
57824;SDS011;43912;44.188;21.094;2022-08-14T14:40:03;18.35;;;16.65;;
57824;SDS011;43912;44.188;21.094;2022-08-14T14:42:30;20.23;;;18.42;;
57824;SDS011;43912;44.188;21.094;2022-08-14T14:45:02;18.92;;;17.23;;
57824;SDS011;43912;44.188;21.094;2022-08-14T14:47:29;19.55;;;17.67;;
57824;SDS011;43912;44.188;21.094;2022-08-14T14:49:57;19.73;;;17.92;;
57824;SDS011;43912;44.188;21.094;2022-08-14T14:52:25;20.02;;;18.33;;
57824;SDS011;43912;44.188;21.094;2022-08-14T14:54:51;19.30;;;17.50;;
57824;SDS011;43912;44.188;21.094;2022-08-14T14:57:17;19.67;;;17.98;;
57824;SDS011;43912;44.188;21.094;2022-08-14T14:59:43;19.25;;;17.55;;
57824;SDS011;43912;44.188;21.094;2022-08-14T15:02:09;19.45;;;17.75;;
57824;SDS011;43912;44.188;21.094;2022-08-14T15:04:40;19.20;;;17.60;;
57824;SDS011;43912;44.188;21.094;2022-08-14T15:07:08;19.02;;;17.33;;
57824;SDS011;43912;44.188;21.094;2022-08-14T15:09:34;18.77;;;17.13;;
57824;SDS011;43912;44.188;21.094;2022-08-14T15:12:00;18.20;;;16.50;;
57824;SDS011;43912;44.188;21.094;2022-08-14T15:14:26;19.35;;;17.48;;
57824;SDS011;43912;44.188;21.094;2022-08-14T15:16:53;19.00;;;17.10;;
57824;SDS011;43912;44.188;21.094;2022-08-14T15:19:19;19.42;;;17.63;;
57824;SDS011;43912;44.188;21.094;2022-08-14T15:21:46;16.48;;;14.95;;
57824;SDS011;43912;44.188;21.094;2022-08-14T15:24:13;16.60;;;14.88;;
57824;SDS011;43912;44.188;21.094;2022-08-14T15:26:40;16.10;;;14.60;;
57824;SDS011;43912;44.188;21.094;2022-08-14T15:29:08;17.88;;;16.23;;
57824;SDS011;43912;44.188;21.094;2022-08-14T15:31:38;17.73;;;16.23;;
57824;SDS011;43912;44.188;21.094;2022-08-14T15:34:04;18.05;;;16.27;;
57824;SDS011;43912;44.188;21.094;2022-08-14T15:36:37;17.88;;;16.17;;
57824;SDS011;43912;44.188;21.094;2022-08-14T15:39:04;17.95;;;15.40;;
57824;SDS011;43912;44.188;21.094;2022-08-14T15:41:30;17.38;;;15.68;;
57824;SDS011;43912;44.188;21.094;2022-08-14T15:43:56;16.58;;;15.10;;
57824;SDS011;43912;44.188;21.094;2022-08-14T15:46:23;17.33;;;15.60;;
57824;SDS011;43912;44.188;21.094;2022-08-14T15:48:50;17.52;;;15.70;;
57824;SDS011;43912;44.188;21.094;2022-08-14T15:51:16;16.52;;;14.93;;
57824;SDS011;43912;44.188;21.094;2022-08-14T15:53:42;17.63;;;15.95;;
57824;SDS011;43912;44.188;21.094;2022-08-14T15:56:08;16.60;;;15.00;;
57824;SDS011;43912;44.188;21.094;2022-08-14T15:58:34;19.10;;;17.20;;
57824;SDS011;43912;44.188;21.094;2022-08-14T16:01:01;19.42;;;17.63;;
57824;SDS011;43912;44.188;21.094;2022-08-14T16:03:49;18.17;;;16.33;;
57824;SDS011;43912;44.188;21.094;2022-08-14T16:06:17;19.35;;;17.63;;
57824;SDS011;43912;44.188;21.094;2022-08-14T16:08:44;18.40;;;16.52;;
57824;SDS011;43912;44.188;21.094;2022-08-14T16:11:11;18.23;;;16.52;;
57824;SDS011;43912;44.188;21.094;2022-08-14T16:13:37;18.10;;;16.52;;
57824;SDS011;43912;44.188;21.094;2022-08-14T16:16:08;18.95;;;17.25;;
57824;SDS011;43912;44.188;21.094;2022-08-14T16:18:34;18.35;;;16.75;;
57824;SDS011;43912;44.188;21.094;2022-08-14T16:21:08;18.90;;;17.30;;
57824;SDS011;43912;44.188;21.094;2022-08-14T16:23:35;18.85;;;16.92;;
57824;SDS011;43912;44.188;21.094;2022-08-14T16:26:02;19.05;;;17.23;;
57824;SDS011;43912;44.188;21.094;2022-08-14T16:28:32;19.42;;;17.73;;
57824;SDS011;43912;44.188;21.094;2022-08-14T16:30:59;20.00;;;18.17;;
57824;SDS011;43912;44.188;21.094;2022-08-14T16:33:26;18.90;;;17.15;;
57824;SDS011;43912;44.188;21.094;2022-08-14T16:35:52;20.45;;;18.40;;
57824;SDS011;43912;44.188;21.094;2022-08-14T16:38:19;19.73;;;17.83;;
57824;SDS011;43912;44.188;21.094;2022-08-14T16:40:51;18.37;;;16.73;;
57824;SDS011;43912;44.188;21.094;2022-08-14T16:43:38;18.55;;;16.92;;
57824;SDS011;43912;44.188;21.094;2022-08-14T16:46:07;20.23;;;18.42;;
57824;SDS011;43912;44.188;21.094;2022-08-14T16:48:35;17.63;;;16.02;;
57824;SDS011;43912;44.188;21.094;2022-08-14T16:51:01;18.35;;;16.65;;
57824;SDS011;43912;44.188;21.094;2022-08-14T16:53:27;19.40;;;17.52;;
57824;SDS011;43912;44.188;21.094;2022-08-14T16:58:49;18.15;;;16.35;;
57824;SDS011;43912;44.188;21.094;2022-08-14T17:03:54;19.67;;;17.77;;
57824;SDS011;43912;44.188;21.094;2022-08-14T17:09:06;20.60;;;18.80;;
57824;SDS011;43912;44.188;21.094;2022-08-14T17:11:32;20.42;;;18.60;;
57824;SDS011;43912;44.188;21.094;2022-08-14T17:13:58;20.08;;;18.20;;
57824;SDS011;43912;44.188;21.094;2022-08-14T17:16:25;22.73;;;20.60;;
57824;SDS011;43912;44.188;21.094;2022-08-14T17:18:53;19.55;;;17.80;;
57824;SDS011;43912;44.188;21.094;2022-08-14T17:24:03;19.17;;;17.45;;
57824;SDS011;43912;44.188;21.094;2022-08-14T17:26:31;20.27;;;18.35;;
57824;SDS011;43912;44.188;21.094;2022-08-14T17:29:05;21.95;;;19.95;;
57824;SDS011;43912;44.188;21.094;2022-08-14T17:33:57;22.70;;;20.33;;
57824;SDS011;43912;44.188;21.094;2022-08-14T17:36:26;24.40;;;22.00;;
57824;SDS011;43912;44.188;21.094;2022-08-14T17:39:12;21.80;;;19.65;;
57824;SDS011;43912;44.188;21.094;2022-08-14T17:41:40;20.65;;;18.80;;
57824;SDS011;43912;44.188;21.094;2022-08-14T17:44:08;20.70;;;18.83;;
57824;SDS011;43912;44.188;21.094;2022-08-14T17:46:36;19.58;;;17.48;;
57824;SDS011;43912;44.188;21.094;2022-08-14T17:49:07;20.90;;;18.83;;
57824;SDS011;43912;44.188;21.094;2022-08-14T17:51:33;21.17;;;19.27;;
57824;SDS011;43912;44.188;21.094;2022-08-14T17:54:03;20.00;;;18.20;;
57824;SDS011;43912;44.188;21.094;2022-08-14T17:56:30;21.02;;;19.08;;
57824;SDS011;43912;44.188;21.094;2022-08-14T17:59:01;21.73;;;19.75;;
57824;SDS011;43912;44.188;21.094;2022-08-14T18:01:28;20.65;;;18.85;;
57824;SDS011;43912;44.188;21.094;2022-08-14T18:03:55;21.02;;;19.13;;
57824;SDS011;43912;44.188;21.094;2022-08-14T18:06:21;22.08;;;19.85;;
57824;SDS011;43912;44.188;21.094;2022-08-14T18:08:47;22.15;;;20.05;;
57824;SDS011;43912;44.188;21.094;2022-08-14T18:11:13;22.67;;;20.70;;
57824;SDS011;43912;44.188;21.094;2022-08-14T18:13:46;22.00;;;19.95;;
57824;SDS011;43912;44.188;21.094;2022-08-14T18:16:12;21.90;;;20.08;;
57824;SDS011;43912;44.188;21.094;2022-08-14T18:18:38;21.83;;;19.73;;
57824;SDS011;43912;44.188;21.094;2022-08-14T18:21:09;23.10;;;20.70;;
57824;SDS011;43912;44.188;21.094;2022-08-14T18:23:35;21.15;;;19.05;;
57824;SDS011;43912;44.188;21.094;2022-08-14T18:26:01;23.73;;;19.67;;
57824;SDS011;43912;44.188;21.094;2022-08-14T18:28:28;26.80;;;24.17;;
57824;SDS011;43912;44.188;21.094;2022-08-14T18:34:05;24.42;;;22.02;;
57824;SDS011;43912;44.188;21.094;2022-08-14T18:36:48;21.80;;;19.80;;
57824;SDS011;43912;44.188;21.094;2022-08-14T18:39:33;22.00;;;19.60;;
57824;SDS011;43912;44.188;21.094;2022-08-14T18:54:47;21.38;;;19.17;;
57824;SDS011;43912;44.188;21.094;2022-08-14T18:57:14;22.35;;;20.05;;
57824;SDS011;43912;44.188;21.094;2022-08-14T18:59:41;22.95;;;20.85;;
57824;SDS011;43912;44.188;21.094;2022-08-14T19:04:52;21.10;;;19.05;;
57824;SDS011;43912;44.188;21.094;2022-08-14T19:07:18;22.13;;;20.08;;
57824;SDS011;43912;44.188;21.094;2022-08-14T19:15:06;21.85;;;19.80;;
57824;SDS011;43912;44.188;21.094;2022-08-14T19:17:42;21.73;;;19.63;;
57824;SDS011;43912;44.188;21.094;2022-08-14T19:20:09;21.05;;;18.88;;
57824;SDS011;43912;44.188;21.094;2022-08-14T19:22:36;21.55;;;19.52;;
57824;SDS011;43912;44.188;21.094;2022-08-14T19:25:05;20.92;;;18.83;;
57824;SDS011;43912;44.188;21.094;2022-08-14T19:27:31;21.85;;;19.70;;
57824;SDS011;43912;44.188;21.094;2022-08-14T19:32:56;21.10;;;19.15;;
57824;SDS011;43912;44.188;21.094;2022-08-14T19:37:54;22.40;;;20.20;;
57824;SDS011;43912;44.188;21.094;2022-08-14T19:40:27;20.42;;;18.50;;
57824;SDS011;43912;44.188;21.094;2022-08-14T19:42:53;19.93;;;18.00;;
57824;SDS011;43912;44.188;21.094;2022-08-14T19:45:22;21.48;;;19.58;;
57824;SDS011;43912;44.188;21.094;2022-08-14T19:47:50;20.80;;;18.80;;
57824;SDS011;43912;44.188;21.094;2022-08-14T19:50:23;20.63;;;18.55;;